Time;durP1;ratioP1;P1;durP2;ratioP2;P2;SDS_P1;SDS_P2;PMS_P1;PMS_P2;Temp;Humidity;BMP_temperature;BMP_pressure;BME280_temperature;BME280_humidity;BME280_pressure;Samples;Min_cycle;Max_cycle;Signal;HPM_P1;HPM_P2
2022/11/08 00:01:45;;;;;;;6.03;1.23;;;;;18.80;100721.00;;;;5049618;28;20210;-75
2022/11/08 00:04:15;;;;;;;2.55;0.80;;;;;18.70;100727.00;;;;5058151;28;20195;-75
2022/11/08 00:14:58;;;;;;;2.90;0.90;;;;;18.60;100722.00;;;;5056473;28;20229;-75
2022/11/08 00:17:27;;;;;;;3.80;1.10;;;;;18.60;100715.00;;;;5061043;28;20222;-75
2022/11/08 00:19:56;;;;;;;3.15;1.10;;;;;18.50;100723.00;;;;5064345;28;20207;-75
2022/11/08 00:22:24;;;;;;;3.95;0.85;;;;;18.50;100717.00;;;;5063307;28;20203;-75
2022/11/08 00:24:51;;;;;;;3.83;0.85;;;;;18.50;100710.00;;;;5068405;28;20289;-75
2022/11/08 00:27:20;;;;;;;2.72;0.90;;;;;18.40;100712.00;;;;5063922;28;20200;-75
2022/11/08 00:29:48;;;;;;;1.45;0.93;;;;;18.40;100722.00;;;;5049906;28;20199;-75
2022/11/08 00:32:17;;;;;;;2.20;0.90;;;;;18.40;100714.00;;;;5051411;28;20576;-76
2022/11/08 00:34:44;;;;;;;3.95;0.90;;;;;18.40;100716.00;;;;5068138;28;20226;-75
2022/11/08 00:37:13;;;;;;;3.08;1.05;;;;;18.30;100716.00;;;;5062723;28;20569;-75
2022/11/08 00:39:40;;;;;;;4.03;1.00;;;;;18.30;100708.00;;;;5063066;28;20206;-75
2022/11/08 00:42:08;;;;;;;3.17;1.17;;;;;18.30;100711.00;;;;5067813;28;20302;-75
2022/11/08 00:44:35;;;;;;;4.05;0.85;;;;;18.30;100704.00;;;;5067664;28;20199;-75
2022/11/08 00:47:02;;;;;;;2.83;0.90;;;;;18.20;100700.00;;;;5066205;28;20215;-75
2022/11/08 00:49:30;;;;;;;2.05;0.90;;;;;18.20;100699.00;;;;5061055;28;20195;-75
2022/11/08 00:51:57;;;;;;;4.70;1.10;;;;;18.20;100701.00;;;;5051130;28;20196;-75
2022/11/08 00:54:26;;;;;;;2.50;1.23;;;;;18.10;100702.00;;;;5048981;28;20211;-75
2022/11/08 00:56:53;;;;;;;5.88;0.95;;;;;18.10;100695.00;;;;5048267;28;20242;-75
2022/11/08 00:59:21;;;;;;;4.43;1.20;;;;;18.10;100701.00;;;;5059292;28;20199;-75
2022/11/08 01:01:48;;;;;;;3.85;1.00;;;;;18.10;100688.00;;;;5058389;28;20207;-75
2022/11/08 01:04:17;;;;;;;3.63;1.23;;;;;18.00;100693.00;;;;5049230;28;20206;-75
2022/11/08 01:06:45;;;;;;;2.35;0.98;;;;;18.00;100704.00;;;;5048525;28;20708;-75
2022/11/08 01:09:12;;;;;;;2.80;1.05;;;;;18.00;100699.00;;;;5054070;28;20199;-75
2022/11/08 01:11:45;;;;;;;5.53;1.38;;;;;18.00;100704.00;;;;5057698;28;20199;-75
2022/11/08 01:14:13;;;;;;;2.78;0.75;;;;;18.00;100697.00;;;;5055812;28;20617;-75
2022/11/08 01:16:41;;;;;;;2.50;0.82;;;;;17.90;100695.00;;;;5068365;28;20229;-75
2022/11/08 01:19:09;;;;;;;1.45;0.80;;;;;17.90;100698.00;;;;5067551;28;20203;-75
2022/11/08 01:21:36;;;;;;;2.58;1.00;;;;;17.90;100686.00;;;;5053696;28;20215;-75
2022/11/08 01:24:04;;;;;;;3.15;1.17;;;;;17.90;100678.00;;;;5049770;28;20693;-75
2022/11/08 01:26:31;;;;;;;4.30;1.17;;;;;17.90;100686.00;;;;5052198;28;20207;-74
2022/11/08 01:29:00;;;;;;;3.25;0.98;;;;;17.80;100678.00;;;;5061861;28;20191;-75
2022/11/08 01:31:29;;;;;;;3.60;1.08;;;;;17.80;100683.00;;;;5052156;28;20203;-74
2022/11/08 01:33:57;;;;;;;3.63;1.20;;;;;17.80;100677.00;;;;5048427;28;20223;-75
2022/11/08 01:36:26;;;;;;;2.83;1.15;;;;;17.80;100673.00;;;;5052542;28;20214;-74
2022/11/08 01:38:54;;;;;;;2.92;0.93;;;;;17.80;100667.00;;;;5055421;28;20227;-74
2022/11/08 01:41:23;;;;;;;1.67;1.02;;;;;17.80;100666.00;;;;5062465;28;20219;-75
2022/11/08 01:43:51;;;;;;;2.88;1.38;;;;;17.80;100662.00;;;;5057052;28;20199;-75
2022/11/08 01:46:39;;;;;;;6.03;2.38;;;;;17.60;100660.00;;;;5050268;28;20650;-74
2022/11/08 01:49:26;;;;;;;2.80;1.20;;;;;17.60;100660.00;;;;5056662;28;20213;-75
2022/11/08 01:51:59;;;;;;;2.88;0.90;;;;;17.70;100649.00;;;;5056876;28;20198;-75
2022/11/08 01:54:34;;;;;;;2.65;1.05;;;;;17.60;100653.00;;;;5067262;28;20684;-75
2022/11/08 01:57:05;;;;;;;2.22;1.05;;;;;17.70;100641.00;;;;5068695;28;20218;-75
2022/11/08 01:59:34;;;;;;;4.03;1.10;;;;;17.60;100643.00;;;;5067861;28;20313;-75
2022/11/08 02:02:03;;;;;;;3.30;1.42;;;;;17.60;100639.00;;;;5062619;28;20210;-74
2022/11/08 02:04:30;;;;;;;4.00;1.30;;;;;17.60;100632.00;;;;5065225;28;20199;-75
2022/11/08 02:06:57;;;;;;;2.40;1.27;;;;;17.60;100633.00;;;;5057187;28;20200;-75
2022/11/08 02:09:26;;;;;;;1.80;1.13;;;;;17.60;100635.00;;;;5053994;28;20252;-75
2022/11/08 02:11:54;;;;;;;2.53;1.05;;;;;17.60;100618.00;;;;5068221;28;20299;-75
2022/11/08 02:14:22;;;;;;;2.17;0.80;;;;;17.60;100609.00;;;;5050752;28;20198;-75
2022/11/08 02:16:49;;;;;;;3.65;1.30;;;;;17.50;100614.00;;;;5064042;28;20601;-74
2022/11/08 02:19:28;;;;;;;3.03;1.25;;;;;17.50;100612.00;;;;5064300;28;20581;-75
2022/11/08 02:22:00;;;;;;;3.10;1.15;;;;;17.50;100602.00;;;;5048427;28;20202;-75
2022/11/08 02:24:29;;;;;;;3.17;1.13;;;;;17.50;100604.00;;;;5048550;28;20204;-75
2022/11/08 02:26:57;;;;;;;1.80;0.90;;;;;17.50;100602.00;;;;5054184;28;20199;-75
2022/11/08 02:29:32;;;;;;;2.10;1.35;;;;;17.40;100607.00;;;;5048137;28;20212;-75
2022/11/08 02:32:00;;;;;;;2.88;1.00;;;;;17.50;100595.00;;;;5051095;28;20202;-75
2022/11/08 02:34:31;;;;;;;2.50;1.27;;;;;17.50;100606.00;;;;5059219;28;20223;-75
2022/11/08 02:36:59;;;;;;;4.40;0.80;;;;;17.50;100602.00;;;;5050699;28;20223;-75
2022/11/08 02:39:28;;;;;;;1.70;1.08;;;;;17.50;100594.00;;;;5067630;28;20588;-75
2022/11/08 02:41:56;;;;;;;2.92;1.00;;;;;17.50;100592.00;;;;5058755;28;20219;-75
2022/11/08 02:44:23;;;;;;;1.58;0.73;;;;;17.50;100580.00;;;;5047886;28;20208;-75
2022/11/08 02:46:50;;;;;;;2.28;0.90;;;;;17.50;100589.00;;;;5064809;28;20207;-75
2022/11/08 02:49:17;;;;;;;5.70;1.20;;;;;17.50;100579.00;;;;5048641;28;20207;-75
2022/11/08 02:51:45;;;;;;;1.90;0.80;;;;;17.50;100586.00;;;;5048156;28;20574;-75
2022/11/08 02:54:12;;;;;;;2.67;0.80;;;;;17.50;100579.00;;;;5048961;28;20212;-75
2022/11/08 02:56:41;;;;;;;4.18;1.30;;;;;17.40;100576.00;;;;5048196;28;20210;-75
2022/11/08 02:59:08;;;;;;;3.28;1.02;;;;;17.40;100575.00;;;;5047727;28;20225;-75
2022/11/08 03:01:35;;;;;;;3.03;1.20;;;;;17.40;100566.00;;;;5049019;28;20208;-75
2022/11/08 03:04:02;;;;;;;2.67;1.02;;;;;17.40;100563.00;;;;5064673;28;20203;-75
2022/11/08 03:06:30;;;;;;;6.78;1.35;;;;;17.40;100561.00;;;;5053093;28;20199;-75
2022/11/08 03:08:57;;;;;;;3.42;1.02;;;;;17.40;100563.00;;;;5053452;28;20703;-75
2022/11/08 03:11:24;;;;;;;3.67;1.25;;;;;17.40;100564.00;;;;5053507;28;20208;-75
2022/11/08 03:13:53;;;;;;;3.50;1.35;;;;;17.30;100551.00;;;;5052289;28;20677;-75
2022/11/08 03:16:20;;;;;;;2.70;1.20;;;;;17.40;100553.00;;;;5051567;28;20199;-75
2022/11/08 03:18:47;;;;;;;2.10;1.13;;;;;17.30;100550.00;;;;5046721;28;20242;-75
2022/11/08 03:21:15;;;;;;;7.35;1.45;;;;;17.30;100545.00;;;;5049838;28;20204;-75
2022/11/08 03:23:42;;;;;;;6.13;1.45;;;;;17.30;100538.00;;;;5057830;28;20191;-75
2022/11/08 03:26:09;;;;;;;2.20;1.35;;;;;17.30;100537.00;;;;5056229;28;20191;-75
2022/11/08 03:28:36;;;;;;;3.55;1.10;;;;;17.30;100525.00;;;;5060021;28;20226;-74
2022/11/08 03:31:05;;;;;;;3.17;1.30;;;;;17.20;100521.00;;;;5069197;28;20577;-75
2022/11/08 03:33:32;;;;;;;3.08;1.13;;;;;17.20;100516.00;;;;5060736;28;20191;-75
2022/11/08 03:36:00;;;;;;;2.20;1.17;;;;;17.30;100516.00;;;;5055559;28;20687;-75
2022/11/08 03:38:27;;;;;;;3.08;1.40;;;;;17.20;100509.00;;;;5069382;28;20865;-75
2022/11/08 03:40:54;;;;;;;2.83;0.90;;;;;17.20;100502.00;;;;5054407;28;20218;-75
2022/11/08 03:43:22;;;;;;;4.00;1.20;;;;;17.20;100491.00;;;;5050287;28;20626;-75
2022/11/08 03:45:49;;;;;;;4.10;1.55;;;;;17.20;100487.00;;;;5061544;28;20200;-74
2022/11/08 03:48:17;;;;;;;4.85;1.63;;;;;17.20;100480.00;;;;5057385;28;20223;-75
2022/11/08 03:50:45;;;;;;;3.15;1.10;;;;;17.20;100475.00;;;;5053449;28;20198;-76
2022/11/08 03:53:12;;;;;;;2.30;1.00;;;;;17.20;100471.00;;;;5052445;28;20195;-75
2022/11/08 03:55:40;;;;;;;2.33;0.93;;;;;17.20;100477.00;;;;5059350;28;20668;-75
2022/11/08 03:58:07;;;;;;;2.33;1.27;;;;;17.20;100475.00;;;;5054101;28;20223;-75
2022/11/08 04:00:34;;;;;;;2.40;1.20;;;;;17.20;100468.00;;;;5050294;28;20207;-75
2022/11/08 04:03:03;;;;;;;2.25;1.00;;;;;17.20;100454.00;;;;5053440;28;20560;-75
2022/11/08 04:05:32;;;;;;;2.72;0.93;;;;;17.20;100448.00;;;;5064488;28;20479;-75
2022/11/08 04:08:01;;;;;;;2.42;0.88;;;;;17.20;100452.00;;;;5050208;28;20737;-75
2022/11/08 04:10:28;;;;;;;2.78;1.30;;;;;17.20;100445.00;;;;5058126;28;20215;-76
2022/11/08 04:15:43;;;;;;;5.97;1.50;;;;;17.20;100444.00;;;;5049690;28;20685;-75
2022/11/08 04:21:18;;;;;;;2.55;0.95;;;;;17.10;100433.00;;;;5049793;28;20332;-75
2022/11/08 04:23:47;;;;;;;2.35;0.90;;;;;17.10;100432.00;;;;5055844;28;20207;-75
2022/11/08 04:26:15;;;;;;;3.03;1.00;;;;;17.10;100423.00;;;;5063839;28;20198;-75
2022/11/08 04:28:42;;;;;;;2.33;1.10;;;;;17.10;100426.00;;;;5064233;28;20203;-75
2022/11/08 04:31:12;;;;;;;4.07;1.00;;;;;17.10;100435.00;;;;5052318;28;20196;-75
2022/11/08 04:33:40;;;;;;;2.80;1.30;;;;;17.10;100432.00;;;;5053950;28;20245;-76
2022/11/08 04:36:11;;;;;;;2.00;0.85;;;;;17.10;100433.00;;;;5058379;28;20597;-75
2022/11/08 04:38:38;;;;;;;2.25;0.85;;;;;17.10;100432.00;;;;5054858;28;20223;-75
2022/11/08 04:41:07;;;;;;;3.22;0.88;;;;;17.10;100421.00;;;;5060588;28;20798;-75
2022/11/08 04:43:35;;;;;;;2.13;0.95;;;;;17.10;100422.00;;;;5058124;28;20290;-75
2022/11/08 04:46:04;;;;;;;1.48;1.17;;;;;17.10;100417.00;;;;5068263;28;20191;-75
2022/11/08 04:48:32;;;;;;;6.03;1.30;;;;;17.10;100423.00;;;;5057974;28;20203;-76
2022/11/08 04:51:04;;;;;;;5.95;1.35;;;;;17.10;100418.00;;;;5049629;28;20581;-75
2022/11/08 04:53:32;;;;;;;3.88;1.08;;;;;17.10;100411.00;;;;5052611;28;20206;-75
2022/11/08 04:56:01;;;;;;;1.92;0.85;;;;;17.10;100398.00;;;;5068914;28;20191;-75
2022/11/08 04:58:29;;;;;;;3.47;1.23;;;;;17.10;100389.00;;;;5068883;28;20230;-75
2022/11/08 05:01:00;;;;;;;3.35;1.20;;;;;17.00;100393.00;;;;5068993;28;20214;-75
2022/11/08 05:03:28;;;;;;;1.60;0.77;;;;;17.10;100383.00;;;;5064174;28;20256;-76
2022/11/08 05:05:55;;;;;;;2.17;0.95;;;;;17.10;100382.00;;;;5068351;28;20195;-75
2022/11/08 05:08:22;;;;;;;1.65;1.20;;;;;17.10;100378.00;;;;5069350;28;20206;-75
2022/11/08 05:10:51;;;;;;;1.02;0.70;;;;;17.10;100371.00;;;;5049709;28;20214;-75
2022/11/08 05:13:18;;;;;;;3.28;1.00;;;;;17.10;100371.00;;;;5047971;28;20195;-75
2022/11/08 05:15:45;;;;;;;2.65;0.70;;;;;17.10;100370.00;;;;5050720;28;20196;-75
2022/11/08 05:18:13;;;;;;;1.88;1.00;;;;;17.10;100373.00;;;;5061549;28;20230;-75
2022/11/08 05:23:25;;;;;;;2.17;0.77;;;;;17.00;100374.00;;;;5068764;28;20198;-75
2022/11/08 05:25:54;;;;;;;1.00;0.73;;;;;17.00;100361.00;;;;5049384;28;20203;-75
2022/11/08 05:28:22;;;;;;;1.85;1.00;;;;;17.00;100367.00;;;;5048789;28;20214;-75
2022/11/08 05:30:54;;;;;;;1.15;0.80;;;;;17.00;100367.00;;;;5058695;28;20657;-75
2022/11/08 05:33:21;;;;;;;1.30;0.90;;;;;17.00;100356.00;;;;5066592;28;20537;-76
2022/11/08 05:35:49;;;;;;;2.72;1.05;;;;;17.00;100357.00;;;;5055753;28;20208;-75
2022/11/08 05:38:16;;;;;;;1.58;1.02;;;;;17.00;100347.00;;;;5053529;28;20238;-75
2022/11/08 05:40:44;;;;;;;3.53;0.90;;;;;17.00;100349.00;;;;5047783;28;20227;-76
2022/11/08 05:43:13;;;;;;;1.85;0.95;;;;;17.00;100342.00;;;;5056072;28;20195;-75
2022/11/08 05:45:40;;;;;;;1.80;1.10;;;;;17.00;100350.00;;;;5048574;28;20199;-76
2022/11/08 05:48:07;;;;;;;2.30;0.98;;;;;17.00;100350.00;;;;5049792;28;20200;-75
2022/11/08 05:50:36;;;;;;;5.85;0.90;;;;;17.00;100348.00;;;;5050889;28;20953;-75
2022/11/08 05:53:03;;;;;;;4.32;1.13;;;;;17.00;100351.00;;;;5048000;28;20207;-75
2022/11/08 05:55:33;;;;;;;1.90;1.42;;;;;17.00;100344.00;;;;5053525;28;20456;-76
2022/11/08 05:58:00;;;;;;;5.70;1.05;;;;;17.00;100340.00;;;;5048318;28;20223;-75
2022/11/08 06:00:29;;;;;;;2.10;0.80;;;;;16.90;100330.00;;;;5048325;28;20581;-75
2022/11/08 06:02:56;;;;;;;2.67;0.98;;;;;16.90;100335.00;;;;5047647;28;20200;-75
2022/11/08 06:05:24;;;;;;;2.22;0.88;;;;;17.00;100335.00;;;;5047877;28;20219;-75
2022/11/08 06:07:53;;;;;;;2.30;1.05;;;;;16.90;100338.00;;;;5054922;28;20191;-75
2022/11/08 06:10:21;;;;;;;2.50;0.75;;;;;16.90;100340.00;;;;5052375;28;20203;-75
2022/11/08 06:12:48;;;;;;;2.72;0.80;;;;;16.90;100336.00;;;;5046806;28;20657;-76
2022/11/08 06:15:15;;;;;;;2.58;0.73;;;;;16.90;100338.00;;;;5064690;28;20187;-76
2022/11/08 06:17:44;;;;;;;3.88;0.82;;;;;16.90;100342.00;;;;5060431;28;20206;-75
2022/11/08 06:20:12;;;;;;;2.78;0.90;;;;;16.90;100336.00;;;;5056381;28;20748;-76
2022/11/08 06:22:40;;;;;;;3.13;0.85;;;;;16.90;100335.00;;;;5045669;28;20553;-75
2022/11/08 06:25:07;;;;;;;2.60;1.00;;;;;16.90;100333.00;;;;5061607;28;20580;-75
2022/11/08 06:27:35;;;;;;;2.67;0.85;;;;;16.90;100325.00;;;;5065605;28;20203;-76
2022/11/08 06:30:02;;;;;;;2.17;1.15;;;;;16.90;100322.00;;;;5048626;28;20230;-75
2022/11/08 06:32:30;;;;;;;1.65;0.70;;;;;16.90;100326.00;;;;5048615;28;20199;-76
2022/11/08 06:34:59;;;;;;;2.80;0.82;;;;;16.80;100325.00;;;;5047350;28;20226;-76
2022/11/08 06:37:26;;;;;;;2.45;0.80;;;;;16.90;100320.00;;;;5047369;28;20693;-76
2022/11/08 06:39:53;;;;;;;8.90;1.05;;;;;16.90;100319.00;;;;5048712;28;20231;-76
2022/11/08 06:42:20;;;;;;;2.85;0.70;;;;;16.80;100314.00;;;;5055949;28;20222;-76
2022/11/08 06:44:48;;;;;;;3.15;0.90;;;;;16.90;100323.00;;;;5046605;28;20215;-75
2022/11/08 06:47:15;;;;;;;2.35;0.90;;;;;16.80;100314.00;;;;5046789;28;20195;-75
2022/11/08 06:49:42;;;;;;;4.38;1.23;;;;;16.80;100315.00;;;;5057066;28;20711;-75
2022/11/08 06:52:11;;;;;;;1.73;0.80;;;;;16.80;100321.00;;;;5048289;28;20662;-75
2022/11/08 06:54:38;;;;;;;2.35;1.10;;;;;16.80;100326.00;;;;5049844;28;20669;-75
2022/11/08 06:57:05;;;;;;;1.67;0.80;;;;;16.80;100318.00;;;;5058323;28;20196;-75
2022/11/08 06:59:32;;;;;;;2.28;1.02;;;;;16.80;100314.00;;;;5050187;28;20234;-75
2022/11/08 07:02:00;;;;;;;1.02;0.70;;;;;16.80;100322.00;;;;5064170;28;20205;-76
2022/11/08 07:04:27;;;;;;;1.83;0.85;;;;;16.80;100332.00;;;;5070985;28;20202;-75
2022/11/08 07:06:56;;;;;;;3.53;0.90;;;;;16.80;100321.00;;;;5056760;28;20196;-75
2022/11/08 07:09:24;;;;;;;4.57;1.05;;;;;16.80;100323.00;;;;5052324;28;20191;-76
2022/11/08 07:11:52;;;;;;;1.45;1.10;;;;;16.90;100320.00;;;;5063617;28;20206;-76
2022/11/08 07:14:19;;;;;;;3.17;1.10;;;;;16.90;100319.00;;;;5068645;28;20210;-76
2022/11/08 07:16:46;;;;;;;1.95;0.90;;;;;16.90;100317.00;;;;5052345;28;20227;-75
2022/11/08 07:19:13;;;;;;;2.50;1.17;;;;;16.90;100323.00;;;;5050766;28;20216;-75
2022/11/08 07:21:41;;;;;;;3.67;1.00;;;;;16.90;100318.00;;;;5049335;28;20202;-76
2022/11/08 07:24:08;;;;;;;1.35;0.82;;;;;16.90;100313.00;;;;5053788;28;20192;-76
2022/11/08 07:26:37;;;;;;;2.05;1.00;;;;;16.90;100317.00;;;;5068233;28;20217;-77
2022/11/08 07:29:04;;;;;;;5.10;0.93;;;;;16.90;100310.00;;;;5057244;28;20223;-76
2022/11/08 07:31:31;;;;;;;1.58;1.08;;;;;16.90;100308.00;;;;5050187;28;20618;-75
2022/11/08 07:33:58;;;;;;;2.85;1.10;;;;;17.00;100310.00;;;;5065436;28;20781;-76
2022/11/08 07:36:26;;;;;;;1.73;1.10;;;;;17.00;100299.00;;;;5057530;28;20207;-76
2022/11/08 07:38:53;;;;;;;1.38;0.90;;;;;17.00;100298.00;;;;5050475;28;20426;-76
2022/11/08 07:41:21;;;;;;;2.90;0.80;;;;;17.10;100293.00;;;;5051955;28;20689;-75
2022/11/08 07:43:49;;;;;;;3.97;1.20;;;;;17.10;100280.00;;;;5051253;28;20261;-76
2022/11/08 07:46:17;;;;;;;1.75;0.98;;;;;17.10;100274.00;;;;5069026;28;20214;-76
2022/11/08 07:48:44;;;;;;;2.05;0.93;;;;;17.10;100284.00;;;;5059237;28;20681;-76
2022/11/08 07:51:11;;;;;;;3.25;1.00;;;;;17.20;100287.00;;;;5049295;28;20198;-76
2022/11/08 07:53:39;;;;;;;1.83;1.02;;;;;17.20;100293.00;;;;5049078;28;20203;-75
2022/11/08 07:56:06;;;;;;;2.03;0.77;;;;;17.20;100293.00;;;;5054650;28;20603;-76
2022/11/08 07:58:34;;;;;;;2.53;1.02;;;;;17.30;100298.00;;;;5050641;28;20226;-76
2022/11/08 08:01:05;;;;;;;1.90;0.80;;;;;17.30;100297.00;;;;5052431;28;20203;-75
2022/11/08 08:03:33;;;;;;;0.98;0.68;;;;;17.30;100296.00;;;;5053983;28;20211;-75
2022/11/08 08:06:00;;;;;;;3.22;0.85;;;;;17.40;100301.00;;;;5048919;28;20203;-76
2022/11/08 08:08:28;;;;;;;1.63;0.80;;;;;17.40;100314.00;;;;5056447;28;20208;-75
2022/11/08 08:10:58;;;;;;;2.78;0.85;;;;;17.40;100318.00;;;;5049650;28;20621;-75
2022/11/08 08:13:25;;;;;;;1.55;0.95;;;;;17.40;100318.00;;;;5049476;28;20260;-76
2022/11/08 08:15:53;;;;;;;0.90;0.70;;;;;17.50;100313.00;;;;5049509;28;21114;-76
2022/11/08 08:18:21;;;;;;;1.35;0.85;;;;;17.50;100319.00;;;;5050648;28;20218;-76
2022/11/08 08:20:49;;;;;;;2.25;0.93;;;;;17.60;100309.00;;;;5050633;28;20218;-76
2022/11/08 08:23:16;;;;;;;1.33;0.80;;;;;17.60;100309.00;;;;5050393;28;20211;-76
2022/11/08 08:25:43;;;;;;;2.85;1.05;;;;;17.60;100311.00;;;;5049771;28;20207;-76
2022/11/08 08:28:11;;;;;;;2.70;1.10;;;;;17.60;100314.00;;;;5049159;28;20195;-76
2022/11/08 08:30:39;;;;;;;2.30;0.93;;;;;17.70;100313.00;;;;5056518;28;20203;-77
2022/11/08 08:33:09;;;;;;;1.27;0.80;;;;;17.70;100319.00;;;;5056098;28;20265;-76
2022/11/08 08:35:38;;;;;;;1.88;0.80;;;;;17.70;100325.00;;;;5058369;28;20238;-77
2022/11/08 08:38:06;;;;;;;1.45;0.85;;;;;17.80;100318.00;;;;5051603;28;20200;-76
2022/11/08 08:40:34;;;;;;;1.35;0.70;;;;;17.80;100342.00;;;;5054567;28;20585;-76
2022/11/08 08:43:03;;;;;;;1.63;1.00;;;;;17.80;100325.00;;;;5052259;28;20202;-76
2022/11/08 08:45:31;;;;;;;2.72;1.20;;;;;17.80;100324.00;;;;5061584;28;20885;-76
2022/11/08 08:47:59;;;;;;;2.33;1.10;;;;;17.80;100318.00;;;;5049388;28;20196;-76
2022/11/08 08:50:27;;;;;;;1.15;0.70;;;;;17.90;100318.00;;;;5054905;28;20199;-76
2022/11/08 08:52:59;;;;;;;3.50;1.20;;;;;17.90;100303.00;;;;5067228;28;20199;-76
2022/11/08 08:55:27;;;;;;;1.80;1.10;;;;;18.00;100298.00;;;;5052086;28;20204;-76
2022/11/08 08:57:54;;;;;;;2.25;0.82;;;;;18.00;100310.00;;;;5052630;28;20200;-76
2022/11/08 09:00:22;;;;;;;3.15;1.05;;;;;18.00;100318.00;;;;5054036;28;20255;-76
2022/11/08 09:02:50;;;;;;;2.17;1.00;;;;;18.00;100299.00;;;;5054843;28;20217;-76
2022/11/08 09:05:17;;;;;;;1.70;0.60;;;;;18.10;100301.00;;;;5056530;28;20203;-76
2022/11/08 09:07:45;;;;;;;2.53;0.90;;;;;18.10;100297.00;;;;5055858;28;20203;-76
2022/11/08 09:10:13;;;;;;;1.60;0.95;;;;;18.10;100298.00;;;;5049431;28;20214;-76
2022/11/08 09:12:41;;;;;;;1.60;1.08;;;;;18.20;100307.00;;;;5053018;28;20222;-76
2022/11/08 09:15:09;;;;;;;1.60;0.80;;;;;18.20;100301.00;;;;5052916;28;20224;-76
2022/11/08 09:17:36;;;;;;;2.35;1.00;;;;;18.20;100299.00;;;;5053179;28;20214;-76
2022/11/08 09:20:04;;;;;;;1.20;0.80;;;;;18.30;100299.00;;;;5055333;28;20223;-76
2022/11/08 09:22:33;;;;;;;1.30;0.70;;;;;18.30;100298.00;;;;5050946;28;20758;-76
2022/11/08 09:25:01;;;;;;;1.60;0.85;;;;;18.30;100291.00;;;;5050144;28;20195;-76
2022/11/08 09:27:30;;;;;;;2.85;1.17;;;;;18.30;100294.00;;;;5053658;28;20200;-76
2022/11/08 09:29:58;;;;;;;2.53;0.75;;;;;18.40;100287.00;;;;5049227;28;20210;-76
2022/11/08 09:32:26;;;;;;;1.90;0.98;;;;;18.40;100288.00;;;;5053781;28;20203;-76
2022/11/08 09:34:54;;;;;;;1.35;0.85;;;;;18.40;100289.00;;;;5048999;28;20579;-75
2022/11/08 09:37:22;;;;;;;1.50;0.80;;;;;18.40;100294.00;;;;5054737;28;20195;-74
2022/11/08 09:39:49;;;;;;;2.50;1.00;;;;;18.50;100298.00;;;;5051591;28;20219;-74
2022/11/08 09:42:41;;;;;;;1.35;0.93;;;;;18.40;100309.00;;;;5047205;28;20218;-74
2022/11/08 09:45:27;;;;;;;1.80;1.23;;;;;18.40;100310.00;;;;5045031;28;20198;-74
2022/11/08 09:47:58;;;;;;;1.73;0.85;;;;;18.50;100315.00;;;;5048113;28;20201;-75
2022/11/08 09:50:34;;;;;;;2.38;0.80;;;;;18.50;100316.00;;;;5047557;28;20202;-75
2022/11/08 09:53:11;;;;;;;1.80;0.70;;;;;18.60;100308.00;;;;5050119;28;20211;-75
2022/11/08 09:55:42;;;;;;;2.00;1.15;;;;;18.60;100306.00;;;;5046533;28;20813;-75
2022/11/08 09:58:26;;;;;;;2.15;0.60;;;;;18.60;100300.00;;;;5052277;28;20238;-75
2022/11/08 10:00:53;;;;;;;1.52;1.02;;;;;18.70;100303.00;;;;5047705;28;20990;-73
2022/11/08 10:03:24;;;;;;;3.05;1.13;;;;;18.70;100277.00;;;;5061914;28;20662;-74
2022/11/08 10:06:16;;;;;;;0.80;0.63;;;;;18.70;100281.00;;;;5048247;28;20192;-74
2022/11/08 10:08:50;;;;;;;2.08;0.90;;;;;18.80;100279.00;;;;5056953;28;20195;-75
2022/11/08 10:11:28;;;;;;;1.00;0.70;;;;;18.90;100289.00;;;;5049171;28;20191;-74
2022/11/08 10:14:07;;;;;;;1.75;0.80;;;;;18.90;100293.00;;;;5048951;28;20675;-75
2022/11/08 10:16:45;;;;;;;1.42;0.70;;;;;19.00;100294.00;;;;5046331;28;20204;-74
2022/11/08 10:19:34;;;;;;;2.17;1.00;;;;;18.90;100288.00;;;;5061785;28;20229;-74
2022/11/08 10:22:05;;;;;;;1.60;0.80;;;;;19.00;100306.00;;;;5055837;28;20195;-74
2022/11/08 10:24:36;;;;;;;2.42;0.93;;;;;19.10;100302.00;;;;5048657;28;20203;-74
2022/11/08 10:27:12;;;;;;;2.55;1.00;;;;;19.10;100299.00;;;;5056854;28;20199;-74
2022/11/08 10:29:45;;;;;;;1.02;0.80;;;;;19.10;100301.00;;;;5047623;28;20454;-74
2022/11/08 10:32:18;;;;;;;2.40;1.10;;;;;19.20;100303.00;;;;5057777;28;20191;-75
2022/11/08 10:34:54;;;;;;;2.15;0.93;;;;;19.20;100299.00;;;;5050938;28;20231;-75
2022/11/08 10:37:22;;;;;;;1.20;0.93;;;;;19.20;100296.00;;;;5051499;28;20195;-74
2022/11/08 10:39:55;;;;;;;2.90;0.85;;;;;19.20;100301.00;;;;5054953;28;20227;-74
2022/11/08 10:42:34;;;;;;;3.63;1.10;;;;;19.20;100293.00;;;;5061030;28;20332;-74
2022/11/08 10:45:03;;;;;;;0.98;0.85;;;;;19.30;100296.00;;;;5058200;28;20257;-74
2022/11/08 10:47:33;;;;;;;3.00;1.00;;;;;19.20;100302.00;;;;5063662;28;20521;-74
2022/11/08 10:50:00;;;;;;;1.02;0.70;;;;;19.30;100299.00;;;;5062037;28;20202;-73
2022/11/08 10:52:34;;;;;;;1.63;0.80;;;;;19.30;100296.00;;;;5060280;28;20215;-74
2022/11/08 10:55:06;;;;;;;1.42;0.95;;;;;19.30;100304.00;;;;5055735;28;20202;-74
2022/11/08 10:57:38;;;;;;;1.70;0.80;;;;;19.30;100295.00;;;;5055330;28;20206;-74
2022/11/08 11:00:29;;;;;;;2.33;1.13;;;;;19.30;100289.00;;;;5068067;28;20282;-74
2022/11/08 11:02:59;;;;;;;1.00;0.70;;;;;19.40;100294.00;;;;5039277;28;20199;-74
2022/11/08 11:05:32;;;;;;;1.23;0.80;;;;;19.40;100288.00;;;;5062879;28;20203;-74
2022/11/08 11:08:16;;;;;;;1.77;0.82;;;;;19.40;100285.00;;;;5053693;28;20203;-73
2022/11/08 11:10:45;;;;;;;1.25;0.73;;;;;19.60;100274.00;;;;5053235;28;20203;-74
2022/11/08 11:13:14;;;;;;;2.90;1.00;;;;;19.60;100269.00;;;;5062883;28;20188;-74
2022/11/08 11:15:50;;;;;;;2.08;0.70;;;;;19.60;100280.00;;;;5056452;28;20206;-74
2022/11/08 11:18:36;;;;;;;1.77;0.70;;;;;19.60;100272.00;;;;5066214;28;20195;-74
2022/11/08 11:21:08;;;;;;;1.50;1.05;;;;;19.70;100275.00;;;;5068337;28;20230;-74
2022/11/08 11:23:39;;;;;;;2.20;0.68;;;;;19.80;100274.00;;;;5050175;28;20234;-74
2022/11/08 11:26:08;;;;;;;1.25;0.85;;;;;19.80;100258.00;;;;5057115;28;20203;-74
2022/11/08 11:28:36;;;;;;;1.50;0.70;;;;;19.80;100260.00;;;;5053358;28;20202;-74
2022/11/08 11:31:16;;;;;;;1.42;0.77;;;;;19.70;100259.00;;;;5050279;28;20207;-74
2022/11/08 11:33:46;;;;;;;2.03;1.20;;;;;19.80;100261.00;;;;5053887;28;20230;-75
2022/11/08 11:36:16;;;;;;;2.03;0.70;;;;;19.80;100260.00;;;;5065532;28;20199;-74
2022/11/08 11:38:49;;;;;;;1.90;0.80;;;;;19.90;100271.00;;;;5048381;28;20200;-74
2022/11/08 11:41:21;;;;;;;1.83;1.02;;;;;19.90;100262.00;;;;5057653;28;20238;-74
2022/11/08 11:44:02;;;;;;;1.73;0.93;;;;;19.90;100258.00;;;;5050651;28;20312;-75
2022/11/08 11:46:37;;;;;;;1.65;0.80;;;;;20.00;100266.00;;;;5050036;28;20227;-74
2022/11/08 11:49:13;;;;;;;1.90;0.73;;;;;20.00;100267.00;;;;5053587;28;20861;-75
2022/11/08 11:51:40;;;;;;;2.08;0.70;;;;;20.10;100264.00;;;;5051516;28;20215;-74
2022/11/08 11:54:11;;;;;;;1.35;0.70;;;;;20.10;100257.00;;;;5052653;28;20206;-75
2022/11/08 11:56:45;;;;;;;2.70;1.13;;;;;20.10;100263.00;;;;5062093;28;20195;-75
2022/11/08 11:59:31;;;;;;;0.90;0.80;;;;;20.10;100257.00;;;;5053543;28;20199;-75
2022/11/08 12:02:21;;;;;;;1.30;0.80;;;;;20.20;100262.00;;;;5053046;28;20200;-75
2022/11/08 12:05:13;;;;;;;3.90;0.77;;;;;20.20;100255.00;;;;5049582;28;20649;-75
2022/11/08 12:07:46;;;;;;;1.55;0.95;;;;;20.40;100252.00;;;;5049168;28;20246;-75
2022/11/08 12:10:24;;;;;;;1.35;0.82;;;;;20.40;100260.00;;;;5059980;28;20190;-75
2022/11/08 12:13:00;;;;;;;4.75;1.38;;;;;20.50;100254.00;;;;5052618;28;20314;-75
2022/11/08 12:15:32;;;;;;;2.67;0.95;;;;;20.60;100245.00;;;;5051031;28;20195;-75
2022/11/08 12:18:31;;;;;;;1.85;1.10;;;;;20.60;100242.00;;;;5051904;28;20195;-75
2022/11/08 12:21:06;;;;;;;3.50;1.00;;;;;20.70;100243.00;;;;5055367;28;20223;-75
2022/11/08 12:23:58;;;;;;;1.63;0.88;;;;;20.70;100244.00;;;;5050138;28;20203;-75
2022/11/08 12:26:32;;;;;;;2.55;1.23;;;;;20.90;100250.00;;;;5053670;28;20206;-74
2022/11/08 12:29:18;;;;;;;2.80;0.90;;;;;20.90;100254.00;;;;5048631;28;20196;-75
2022/11/08 12:31:58;;;;;;;3.28;1.33;;;;;21.00;100248.00;;;;5049418;28;20203;-74
2022/11/08 12:34:35;;;;;;;3.50;1.15;;;;;21.00;100240.00;;;;5051011;28;20245;-74
2022/11/08 12:37:13;;;;;;;2.95;1.15;;;;;21.00;100254.00;;;;5048882;28;20202;-75
2022/11/08 12:39:45;;;;;;;1.27;0.60;;;;;21.10;100251.00;;;;5056345;28;20226;-75